createdAt,value
2018-03-30T00:01:44.058Z,3.44
2018-03-30T00:04:09.821Z,3.43
2018-03-30T00:06:35.580Z,3.41
2018-03-30T00:09:01.336Z,3.38
2018-03-30T00:11:27.344Z,3.37
2018-03-30T00:13:53.129Z,3.36
2018-03-30T00:16:18.894Z,3.35
2018-03-30T00:18:44.666Z,3.35
2018-03-30T00:21:10.463Z,3.35
2018-03-30T00:23:36.222Z,3.36
2018-03-30T00:26:01.992Z,3.37
2018-03-30T00:28:28.114Z,3.35
2018-03-30T00:30:53.982Z,3.36
2018-03-30T00:33:19.785Z,3.34
2018-03-30T00:35:45.574Z,3.33
2018-03-30T00:38:11.364Z,3.33
2018-03-30T00:40:37.161Z,3.30
2018-03-30T00:43:02.965Z,3.30
2018-03-30T00:45:28.804Z,3.33
2018-03-30T00:47:54.645Z,3.31
2018-03-30T00:50:20.422Z,3.30
2018-03-30T00:52:46.190Z,3.28
2018-03-30T00:55:11.989Z,3.28
2018-03-30T00:57:37.765Z,3.22
2018-03-30T01:00:03.563Z,3.21
2018-03-30T01:02:29.761Z,3.19
2018-03-30T01:04:55.521Z,3.16
2018-03-30T01:07:21.297Z,3.15
2018-03-30T01:09:47.077Z,3.15
2018-03-30T01:12:12.849Z,3.17
2018-03-30T01:14:38.638Z,3.12
2018-03-30T01:17:04.416Z,3.11
2018-03-30T01:19:30.216Z,3.13
2018-03-30T01:21:55.987Z,3.10
2018-03-30T01:24:21.748Z,3.12
2018-03-30T01:29:31.793Z,3.12
2018-03-30T01:31:57.592Z,3.12
2018-03-30T01:34:23.356Z,3.11
2018-03-30T01:36:49.145Z,2.99
2018-03-30T01:39:14.905Z,3.02
2018-03-30T01:41:40.686Z,2.99
2018-03-30T01:44:06.456Z,2.96
2018-03-30T01:46:32.227Z,2.94
2018-03-30T01:48:57.967Z,2.92
2018-03-30T01:51:23.743Z,2.93
2018-03-30T01:53:49.518Z,2.93
2018-03-30T01:56:15.272Z,2.93
2018-03-30T01:58:41.112Z,2.89
2018-03-30T02:01:06.856Z,2.88
2018-03-30T02:03:32.609Z,2.87
2018-03-30T02:05:58.376Z,2.83
2018-03-30T02:08:24.133Z,2.83
2018-03-30T02:10:49.892Z,2.82
2018-03-30T02:13:15.673Z,2.83
2018-03-30T02:15:41.429Z,2.85
2018-03-30T02:18:07.195Z,2.89
2018-03-30T02:20:32.965Z,2.86
2018-03-30T02:22:58.702Z,2.85
2018-03-30T02:25:24.460Z,2.87
2018-03-30T02:27:50.828Z,2.84
2018-03-30T02:30:16.598Z,2.84
2018-03-30T02:32:42.359Z,2.84
2018-03-30T02:35:08.119Z,2.85
2018-03-30T02:37:33.893Z,2.86
2018-03-30T02:39:59.657Z,2.84
2018-03-30T02:42:25.441Z,2.88
2018-03-30T02:44:51.547Z,2.89
2018-03-30T02:47:17.365Z,2.88
2018-03-30T02:49:43.105Z,2.85
2018-03-30T02:52:08.883Z,2.85
2018-03-30T02:54:34.674Z,2.80
2018-03-30T02:57:00.425Z,2.79
2018-03-30T02:59:26.181Z,2.79
2018-03-30T03:01:52.192Z,2.80
2018-03-30T03:04:17.966Z,2.82
2018-03-30T03:06:43.723Z,2.82
2018-03-30T03:09:09.480Z,2.82
2018-03-30T03:11:35.241Z,2.81
2018-03-30T03:14:00.989Z,2.81
2018-03-30T03:16:26.769Z,2.83
2018-03-30T03:18:52.521Z,2.84
2018-03-30T03:21:18.280Z,2.86
2018-03-30T03:23:44.170Z,2.85
2018-03-30T03:26:09.956Z,2.84
2018-03-30T03:28:35.724Z,2.80
2018-03-30T03:31:01.497Z,2.83
2018-03-30T03:33:27.269Z,2.79
2018-03-30T03:35:53.047Z,2.82
2018-03-30T03:38:18.804Z,2.84
2018-03-30T03:40:44.766Z,2.87
2018-03-30T03:43:10.569Z,2.91
2018-03-30T03:45:36.338Z,2.91
2018-03-30T03:48:02.084Z,2.90
2018-03-30T03:50:27.866Z,2.87
2018-03-30T03:52:53.641Z,2.87
2018-03-30T03:55:19.400Z,2.87
2018-03-30T03:57:45.224Z,2.85
2018-03-30T04:00:11.008Z,2.84
2018-03-30T04:02:36.769Z,2.80
2018-03-30T04:05:02.539Z,2.84
2018-03-30T04:07:28.314Z,2.85
2018-03-30T04:09:54.049Z,2.84
2018-03-30T04:12:19.819Z,2.88
2018-03-30T04:14:46.048Z,2.94
2018-03-30T04:17:11.811Z,3.00
2018-03-30T04:19:37.561Z,3.03
2018-03-30T04:22:03.338Z,3.03
2018-03-30T04:24:29.120Z,3.06
2018-03-30T04:26:54.870Z,3.12
2018-03-30T04:29:20.659Z,3.15
2018-03-30T04:31:46.485Z,3.15
2018-03-30T04:34:12.240Z,3.15
2018-03-30T04:36:38.009Z,3.17
2018-03-30T04:39:04.763Z,3.16
2018-03-30T04:41:30.574Z,3.15
2018-03-30T04:43:56.337Z,3.15
2018-03-30T04:46:22.090Z,3.14
2018-03-30T04:48:47.865Z,3.16
2018-03-30T04:51:13.614Z,3.20
2018-03-30T04:53:39.849Z,3.23
2018-03-30T04:56:05.657Z,3.29
2018-03-30T04:58:31.428Z,3.32
2018-03-30T05:00:57.168Z,3.33
2018-03-30T05:03:22.950Z,3.32
2018-03-30T05:05:48.728Z,3.32
2018-03-30T05:08:14.497Z,3.27
2018-03-30T05:10:40.693Z,3.31
2018-03-30T05:13:06.490Z,3.35
2018-03-30T05:15:32.252Z,3.38
2018-03-30T05:17:58.046Z,3.41
2018-03-30T05:20:23.984Z,3.43
2018-03-30T05:22:49.777Z,3.46
2018-03-30T05:25:15.565Z,3.46
2018-03-30T05:27:41.385Z,3.48
2018-03-30T05:30:07.144Z,3.49
2018-03-30T05:32:32.924Z,3.52
2018-03-30T05:34:58.694Z,3.56
2018-03-30T05:37:24.437Z,3.59
2018-03-30T05:39:50.221Z,3.65
2018-03-30T05:42:15.988Z,3.64
2018-03-30T05:44:41.750Z,3.71
2018-03-30T05:47:07.533Z,3.72
2018-03-30T05:49:33.309Z,3.74
2018-03-30T05:51:59.373Z,3.77
2018-03-30T05:54:25.199Z,3.79
2018-03-30T05:56:50.938Z,3.79
2018-03-30T05:59:16.696Z,3.73
2018-03-30T06:01:42.493Z,3.68
2018-03-30T06:04:08.233Z,3.69
2018-03-30T06:06:34.005Z,3.75
2018-03-30T06:08:59.777Z,3.78
2018-03-30T06:11:25.517Z,3.84
2018-03-30T06:13:51.294Z,3.87
2018-03-30T06:16:17.110Z,3.90
2018-03-30T06:18:42.860Z,3.94
2018-03-30T06:21:08.629Z,3.93
2018-03-30T06:23:34.536Z,3.97
2018-03-30T06:26:00.330Z,4.01
2018-03-30T06:28:26.108Z,4.08
2018-03-30T06:30:51.889Z,4.07
2018-03-30T06:33:17.651Z,4.00
2018-03-30T06:35:43.396Z,3.95
2018-03-30T06:38:09.190Z,3.99
2018-03-30T06:40:34.961Z,4.04
2018-03-30T06:43:00.716Z,4.11
2018-03-30T06:45:26.512Z,4.17
2018-03-30T06:47:52.257Z,4.24
2018-03-30T06:50:17.997Z,4.32
2018-03-30T06:52:43.968Z,4.38
2018-03-30T06:55:09.721Z,4.42
2018-03-30T06:57:35.468Z,4.39
2018-03-30T07:00:01.257Z,4.20
2018-03-30T07:02:27.009Z,4.13
2018-03-30T07:04:52.768Z,4.10
2018-03-30T07:07:18.510Z,4.15
2018-03-30T07:09:44.263Z,4.23
2018-03-30T07:12:10.046Z,4.32
2018-03-30T07:14:35.834Z,4.44
2018-03-30T07:17:01.597Z,4.54
2018-03-30T07:19:27.386Z,4.58
2018-03-30T07:21:53.165Z,4.61
2018-03-30T07:24:19.686Z,4.64
2018-03-30T07:26:45.508Z,4.64
2018-03-30T07:29:11.861Z,4.65
2018-03-30T07:31:37.621Z,4.70
2018-03-30T07:34:03.377Z,4.73
2018-03-30T07:36:29.145Z,4.78
2018-03-30T07:38:55.045Z,4.80
2018-03-30T07:41:20.791Z,4.79
2018-03-30T07:43:46.549Z,4.77
2018-03-30T07:46:12.325Z,4.84
2018-03-30T07:48:38.069Z,4.87
2018-03-30T07:51:03.844Z,4.90
2018-03-30T07:53:29.579Z,5.02
2018-03-30T07:55:55.734Z,5.09
2018-03-30T07:58:21.528Z,5.16
2018-03-30T08:00:47.272Z,5.24
2018-03-30T08:03:13.031Z,5.21
2018-03-30T08:05:38.781Z,5.26
2018-03-30T08:08:04.538Z,5.31
2018-03-30T08:10:30.304Z,5.38
2018-03-30T08:12:56.105Z,5.41
2018-03-30T08:15:21.877Z,5.50
2018-03-30T08:17:47.648Z,5.49
2018-03-30T08:20:13.405Z,5.56
2018-03-30T08:22:39.170Z,5.66
2018-03-30T08:25:04.904Z,5.65
2018-03-30T08:27:30.744Z,5.67
2018-03-30T08:29:56.496Z,5.66
2018-03-30T08:32:22.261Z,5.77
2018-03-30T08:34:48.033Z,5.85
2018-03-30T08:37:13.811Z,5.92
2018-03-30T08:39:39.549Z,6.06
2018-03-30T08:42:05.341Z,6.16
2018-03-30T08:44:31.161Z,6.05
2018-03-30T08:46:56.924Z,5.93
2018-03-30T08:49:22.732Z,5.91
2018-03-30T08:51:48.461Z,5.88
2018-03-30T08:54:14.678Z,5.82
2018-03-30T08:56:40.460Z,5.82
2018-03-30T08:59:06.212Z,5.87
2018-03-30T09:01:31.972Z,6.00
2018-03-30T09:03:57.729Z,6.09
2018-03-30T09:06:23.476Z,6.22
2018-03-30T09:08:49.255Z,6.33
2018-03-30T09:11:15.006Z,6.39
2018-03-30T09:13:40.773Z,6.54
2018-03-30T09:16:06.528Z,6.66
2018-03-30T09:18:32.305Z,6.62
2018-03-30T09:20:58.435Z,6.98
2018-03-30T09:23:24.220Z,7.06
2018-03-30T09:25:49.985Z,7.14
2018-03-30T09:28:15.738Z,7.22
2018-03-30T09:30:41.637Z,7.19
2018-03-30T09:33:13.413Z,7.31
2018-03-30T09:35:39.185Z,7.34
2018-03-30T09:38:05.237Z,7.40
2018-03-30T09:40:30.982Z,7.56
2018-03-30T09:42:56.781Z,7.54
2018-03-30T09:45:22.529Z,7.62
2018-03-30T09:47:48.311Z,7.68
2018-03-30T09:50:14.085Z,7.70
2018-03-30T09:52:39.865Z,7.76
2018-03-30T09:55:05.620Z,7.76
2018-03-30T09:57:31.416Z,7.83
2018-03-30T09:59:57.160Z,7.93
2018-03-30T10:02:28.273Z,8.14
2018-03-30T10:04:58.970Z,8.34
2018-03-30T10:07:24.727Z,8.43
2018-03-30T10:09:50.510Z,8.48
2018-03-30T10:12:16.265Z,8.58
2018-03-30T10:14:42.056Z,8.59
2018-03-30T10:17:07.805Z,8.73
2018-03-30T10:19:33.556Z,8.76
2018-03-30T10:21:59.336Z,8.97
2018-03-30T10:24:25.536Z,9.05
2018-03-30T10:26:51.305Z,8.96
2018-03-30T10:29:16.984Z,8.62
2018-03-30T10:31:42.653Z,8.47
2018-03-30T10:34:08.352Z,8.30
2018-03-30T10:36:34.013Z,8.14
2018-03-30T10:38:59.701Z,8.08
2018-03-30T10:41:25.384Z,8.04
2018-03-30T10:43:51.185Z,8.05
2018-03-30T10:46:16.841Z,8.20
2018-03-30T10:48:42.985Z,8.40
2018-03-30T10:51:08.610Z,8.63
2018-03-30T10:53:34.273Z,8.90
2018-03-30T10:55:59.940Z,9.05
2018-03-30T10:58:25.589Z,9.03
2018-03-30T11:00:51.246Z,9.08
2018-03-30T11:03:16.916Z,9.02
2018-03-30T11:05:43.017Z,9.06
2018-03-30T11:08:08.676Z,9.10
2018-03-30T11:10:34.336Z,9.11
2018-03-30T11:12:59.988Z,9.23
2018-03-30T11:15:25.665Z,9.37
2018-03-30T11:17:51.316Z,9.34
2018-03-30T11:20:16.990Z,9.50
2018-03-30T11:22:42.688Z,9.54
2018-03-30T11:25:08.964Z,9.51
2018-03-30T11:27:34.637Z,9.36
2018-03-30T11:30:00.313Z,9.33
2018-03-30T11:32:26.036Z,9.38
2018-03-30T11:34:51.666Z,9.40
2018-03-30T11:37:17.332Z,9.32
2018-03-30T11:39:42.997Z,9.38
2018-03-30T11:42:08.740Z,9.57
2018-03-30T11:44:34.400Z,9.50
2018-03-30T11:47:00.069Z,9.50
2018-03-30T11:49:25.753Z,9.44
2018-03-30T11:51:51.405Z,9.55
2018-03-30T11:54:17.115Z,9.50
2018-03-30T11:56:42.867Z,9.60
2018-03-30T11:59:08.593Z,9.49
2018-03-30T12:01:38.132Z,9.30
2018-03-30T12:04:15.644Z,9.22
2018-03-30T12:06:55.229Z,9.29
2018-03-30T12:12:39.667Z,9.46
2018-03-30T12:15:13.191Z,9.75
2018-03-30T12:17:41.449Z,9.87
2018-03-30T12:20:08.874Z,10.02
2018-03-30T12:22:34.676Z,10.10
2018-03-30T12:25:00.336Z,10.23
2018-03-30T12:27:26.336Z,10.19
2018-03-30T12:29:51.996Z,10.33
2018-03-30T12:32:17.645Z,10.26
2018-03-30T12:34:43.328Z,10.25
2018-03-30T12:37:08.979Z,10.32
2018-03-30T12:39:34.644Z,10.51
2018-03-30T12:42:00.332Z,10.53
2018-03-30T12:44:26.072Z,10.67
2018-03-30T12:46:51.733Z,10.60
2018-03-30T12:49:17.399Z,10.24
2018-03-30T12:51:43.061Z,10.15
2018-03-30T12:54:08.712Z,10.13
2018-03-30T12:56:34.382Z,10.13
2018-03-30T12:59:00.053Z,10.24
2018-03-30T13:01:26.136Z,10.38
2018-03-30T13:03:51.818Z,10.41
2018-03-30T13:06:17.472Z,10.44
2018-03-30T13:08:43.140Z,10.58
2018-03-30T13:11:08.812Z,10.61
2018-03-30T13:13:34.481Z,10.71
2018-03-30T13:16:00.137Z,10.70
2018-03-30T13:18:25.838Z,10.58
2018-03-30T13:20:51.737Z,10.55
2018-03-30T13:23:17.579Z,10.63
2018-03-30T13:25:43.260Z,10.62
2018-03-30T13:28:08.916Z,10.58
2018-03-30T13:30:34.577Z,10.66
2018-03-30T13:33:00.248Z,10.77
2018-03-30T13:35:25.936Z,10.84
2018-03-30T13:37:51.594Z,10.86
2018-03-30T13:40:17.287Z,10.93
2018-03-30T13:42:42.941Z,10.88
2018-03-30T13:45:08.614Z,11.01
2018-03-30T13:47:34.287Z,11.06
2018-03-30T13:49:59.958Z,11.02
2018-03-30T13:52:26.589Z,10.97
2018-03-30T13:54:52.248Z,11.00
2018-03-30T13:57:17.930Z,11.02
2018-03-30T13:59:43.603Z,11.08
2018-03-30T14:02:26.178Z,11.19
2018-03-30T14:04:51.868Z,11.22
2018-03-30T14:07:20.463Z,11.25
2018-03-30T14:09:46.124Z,11.17
2018-03-30T14:12:11.789Z,11.19
2018-03-30T14:14:37.446Z,11.24
2018-03-30T14:17:04.949Z,11.29
2018-03-30T14:19:31.518Z,11.33
2018-03-30T14:22:03.443Z,11.31
2018-03-30T14:24:34.048Z,11.36
2018-03-30T14:27:18.644Z,11.43
2018-03-30T14:29:48.309Z,11.45
2018-03-30T14:32:15.865Z,11.45
2018-03-30T14:34:47.436Z,11.47
2018-03-30T14:37:25.924Z,11.54
2018-03-30T14:39:51.636Z,11.61
2018-03-30T14:42:18.193Z,11.56
2018-03-30T14:44:49.796Z,11.52
2018-03-30T14:47:15.467Z,11.53
2018-03-30T14:49:41.157Z,11.56
2018-03-30T14:55:08.508Z,11.52
2018-03-30T14:57:37.186Z,11.57
2018-03-30T15:00:20.032Z,11.61
2018-03-30T15:02:45.698Z,11.49
2018-03-30T15:05:30.197Z,11.48
2018-03-30T15:07:56.720Z,11.41
2018-03-30T15:10:28.455Z,11.43
2018-03-30T15:16:04.485Z,11.24
2018-03-30T15:18:32.092Z,11.29
2018-03-30T15:20:57.765Z,11.17
2018-03-30T15:23:23.432Z,11.18
2018-03-30T15:25:49.373Z,11.24
2018-03-30T15:28:15.061Z,11.21
2018-03-30T15:30:42.627Z,11.36
2018-03-30T15:36:05.390Z,11.42
2018-03-30T15:38:31.072Z,11.39
2018-03-30T15:40:56.744Z,11.37
2018-03-30T15:43:22.404Z,11.28
2018-03-30T15:45:54.967Z,11.21
2018-03-30T15:48:20.664Z,11.20
2018-03-30T15:50:46.357Z,11.20
2018-03-30T15:53:16.297Z,11.19
2018-03-30T15:55:41.965Z,11.26
2018-03-30T15:58:07.648Z,11.21
2018-03-30T16:00:33.345Z,11.23
2018-03-30T16:02:59.033Z,11.29
2018-03-30T16:05:24.692Z,11.20
2018-03-30T16:07:50.379Z,11.14
2018-03-30T16:10:16.064Z,11.15
2018-03-30T16:12:41.740Z,11.09
2018-03-30T16:15:07.426Z,11.08
2018-03-30T16:17:33.108Z,11.11
2018-03-30T16:19:58.720Z,11.09
2018-03-30T16:22:24.608Z,11.11
2018-03-30T16:24:50.208Z,11.13
2018-03-30T16:27:15.820Z,11.12
2018-03-30T16:29:41.470Z,11.16
2018-03-30T16:32:07.063Z,11.13
2018-03-30T16:34:32.661Z,11.16
2018-03-30T16:36:58.272Z,11.18
2018-03-30T16:39:23.876Z,11.10
2018-03-30T16:41:49.477Z,11.05
2018-03-30T16:44:15.086Z,10.98
2018-03-30T16:46:40.700Z,10.95
2018-03-30T16:49:06.317Z,10.95
2018-03-30T16:51:32.389Z,10.88
2018-03-30T16:53:57.990Z,10.74
2018-03-30T16:56:23.600Z,10.72
2018-03-30T16:58:49.216Z,10.72
2018-03-30T17:01:14.860Z,10.58
2018-03-30T17:03:40.448Z,10.52
2018-03-30T17:06:06.059Z,10.48
2018-03-30T17:08:31.876Z,10.40
2018-03-30T17:10:57.478Z,10.26
2018-03-30T17:13:23.093Z,10.28
2018-03-30T17:15:48.718Z,10.27
2018-03-30T17:18:14.333Z,10.22
2018-03-30T17:20:39.936Z,10.14
2018-03-30T17:23:05.551Z,10.10
2018-03-30T17:25:31.192Z,10.01
2018-03-30T17:27:56.790Z,10.03
2018-03-30T17:30:22.452Z,10.00
2018-03-30T17:32:48.094Z,9.98
2018-03-30T17:35:13.698Z,9.92
2018-03-30T17:43:16.984Z,9.70
2018-03-30T17:45:42.585Z,9.58
2018-03-30T17:48:08.176Z,9.50
2018-03-30T17:50:33.792Z,9.47
2018-03-30T17:52:59.393Z,9.42
2018-03-30T17:55:24.984Z,9.33
2018-03-30T17:57:50.589Z,9.28
2018-03-30T18:00:16.803Z,9.19
2018-03-30T18:02:42.398Z,9.15
2018-03-30T18:05:08.015Z,9.10
2018-03-30T18:07:33.618Z,9.06
2018-03-30T18:09:59.233Z,9.00
2018-03-30T18:12:24.857Z,8.98
2018-03-30T18:14:50.456Z,8.98
2018-03-30T18:17:16.416Z,8.92
2018-03-30T18:19:42.047Z,8.92
2018-03-30T18:22:07.668Z,8.90
2018-03-30T18:24:33.284Z,8.83
2018-03-30T18:26:58.888Z,8.85
2018-03-30T18:29:24.494Z,8.86
2018-03-30T18:31:50.100Z,8.83
2018-03-30T18:34:16.128Z,8.77
2018-03-30T18:36:41.724Z,8.68
2018-03-30T18:39:07.344Z,8.62
2018-03-30T18:41:32.960Z,8.55
2018-03-30T18:43:58.560Z,8.51
2018-03-30T18:46:24.161Z,8.51
2018-03-30T18:48:49.777Z,8.53
2018-03-30T18:51:15.686Z,8.46
2018-03-30T18:53:41.331Z,8.46
2018-03-30T18:56:06.958Z,8.40
2018-03-30T18:58:32.556Z,8.30
2018-03-30T19:00:58.160Z,8.30
2018-03-30T19:03:23.788Z,8.36
2018-03-30T19:05:49.400Z,8.32
2018-03-30T19:08:15.085Z,8.27
2018-03-30T19:10:40.733Z,8.28
2018-03-30T19:13:06.355Z,8.25
2018-03-30T19:15:31.968Z,8.25
2018-03-30T19:17:57.584Z,8.18
2018-03-30T19:20:23.189Z,8.11
2018-03-30T19:22:48.793Z,8.12
2018-03-30T19:25:14.720Z,8.17
2018-03-30T19:27:40.332Z,8.15
2018-03-30T19:30:05.938Z,8.19
2018-03-30T19:32:31.559Z,8.10
2018-03-30T19:34:57.174Z,8.07
2018-03-30T19:37:22.772Z,8.03
2018-03-30T19:39:48.400Z,7.97
2018-03-30T19:42:14.014Z,7.88
2018-03-30T19:44:39.617Z,8.03
2018-03-30T19:47:05.233Z,8.02
2018-03-30T19:49:30.836Z,8.00
2018-03-30T19:51:56.448Z,7.96
2018-03-30T19:54:22.068Z,7.93
2018-03-30T19:56:47.678Z,7.96
2018-03-30T19:59:13.451Z,7.95
2018-03-30T20:01:39.063Z,7.88
2018-03-30T20:04:04.661Z,7.88
2018-03-30T20:06:30.269Z,7.85
2018-03-30T20:08:55.872Z,7.87
2018-03-30T20:11:21.472Z,7.82
2018-03-30T20:13:47.093Z,7.78
2018-03-30T20:16:12.690Z,7.71
2018-03-30T20:18:38.288Z,7.64
2018-03-30T20:21:03.926Z,7.64
2018-03-30T20:23:29.960Z,7.67
2018-03-30T20:25:55.566Z,7.64
2018-03-30T20:28:21.183Z,7.58
2018-03-30T20:30:46.794Z,7.58
2018-03-30T20:33:12.394Z,7.64
2018-03-30T20:35:37.996Z,7.66
2018-03-30T20:38:03.584Z,7.68
2018-03-30T20:40:29.208Z,7.62
2018-03-30T20:42:54.792Z,7.59
2018-03-30T20:45:20.396Z,7.54
2018-03-30T20:47:46.021Z,7.57
2018-03-30T20:50:11.617Z,7.56
2018-03-30T20:52:37.634Z,7.56
2018-03-30T20:55:03.245Z,7.46
2018-03-30T20:57:28.840Z,7.43
2018-03-30T20:59:54.441Z,7.48
2018-03-30T21:02:20.058Z,7.44
2018-03-30T21:04:45.648Z,7.41
2018-03-30T21:07:11.244Z,7.41
2018-03-30T21:09:37.392Z,7.47
2018-03-30T21:12:03.031Z,7.50
2018-03-30T21:14:28.618Z,7.50
2018-03-30T21:16:54.233Z,7.45
2018-03-30T21:19:19.837Z,7.46
2018-03-30T21:21:45.446Z,7.51
2018-03-30T21:24:11.057Z,7.59
2018-03-30T21:26:36.957Z,7.60
2018-03-30T21:29:02.589Z,7.62
2018-03-30T21:31:28.209Z,7.61
2018-03-30T21:33:53.818Z,7.58
2018-03-30T21:36:19.431Z,7.56
2018-03-30T21:38:45.032Z,7.53
2018-03-30T21:41:10.638Z,7.57
2018-03-30T21:43:36.260Z,7.58
2018-03-30T21:46:01.855Z,7.50
2018-03-30T21:48:27.456Z,7.42
2018-03-30T21:50:53.072Z,7.43
2018-03-30T21:53:18.656Z,7.46
2018-03-30T21:55:44.414Z,7.45
2018-03-30T21:58:10.040Z,7.40
2018-03-30T22:00:35.701Z,7.39
2018-03-30T22:03:01.302Z,7.36
2018-03-30T22:05:26.904Z,7.35
2018-03-30T22:07:52.522Z,7.35
2018-03-30T22:10:18.140Z,7.35
2018-03-30T22:12:43.736Z,7.29
2018-03-30T22:15:09.332Z,7.29
2018-03-30T22:17:34.941Z,7.24
2018-03-30T22:20:00.780Z,7.23
2018-03-30T22:22:26.374Z,7.18
2018-03-30T22:24:51.996Z,7.12
2018-03-30T22:27:17.604Z,7.02
2018-03-30T22:29:43.196Z,6.96
2018-03-30T22:32:08.830Z,6.97
2018-03-30T22:34:34.444Z,6.88
2018-03-30T22:37:00.486Z,6.86
2018-03-30T22:39:26.102Z,6.89
2018-03-30T22:41:51.704Z,6.81
2018-03-30T22:44:17.305Z,6.84
2018-03-30T22:46:42.944Z,6.78
2018-03-30T22:49:08.545Z,6.77
2018-03-30T22:51:34.149Z,6.76
2018-03-30T22:53:59.763Z,6.76
2018-03-30T22:56:25.432Z,6.75
2018-03-30T22:58:51.127Z,6.73
2018-03-30T23:01:16.729Z,6.67
2018-03-30T23:03:42.321Z,6.65
2018-03-30T23:06:07.925Z,6.71
2018-03-30T23:08:33.525Z,6.75
2018-03-30T23:10:59.121Z,6.74
2018-03-30T23:13:24.883Z,6.67
2018-03-30T23:15:50.501Z,6.59
2018-03-30T23:18:16.112Z,6.58
2018-03-30T23:20:41.728Z,6.59
2018-03-30T23:23:07.312Z,6.58
2018-03-30T23:25:32.904Z,6.55
2018-03-30T23:27:58.630Z,6.56
2018-03-30T23:30:24.460Z,6.59
2018-03-30T23:32:50.056Z,6.48
2018-03-30T23:35:15.659Z,6.46
2018-03-30T23:37:41.260Z,6.45
2018-03-30T23:40:06.896Z,6.35
2018-03-30T23:42:32.491Z,6.35
2018-03-30T23:44:58.088Z,6.38
2018-03-30T23:47:24.024Z,6.33
2018-03-30T23:49:49.657Z,6.27
2018-03-30T23:52:15.258Z,6.27
2018-03-30T23:54:40.872Z,6.27
2018-03-30T23:57:06.469Z,6.21
2018-03-30T23:59:32.072Z,6.18
